Time;durP1;ratioP1;P1;durP2;ratioP2;P2;SDS_P1;SDS_P2;PMS_P1;PMS_P2;Temp;Humidity;BMP_temperature;BMP_pressure;BME280_temperature;BME280_humidity;BME280_pressure;Samples;Min_cycle;Max_cycle;Signal;HPM_P1;HPM_P2
2022/01/20 00:04:33;0.00;0.00;0.62;0.00;0.00;0.62;3.10;1.83;;;21.30;28.60;;;;;;2245038;61;20397;-62
2022/01/20 00:28:14;0.00;0.00;0.62;0.00;0.00;0.62;6.00;2.47;;;21.20;27.40;;;;;;2245862;61;20396;-59
2022/01/20 00:31:11;0.00;0.00;0.62;0.00;0.00;0.62;7.07;3.30;;;21.10;27.00;;;;;;2245429;61;20433;-59
2022/01/20 00:34:12;0.00;0.00;0.62;0.00;0.00;0.62;4.60;2.23;;;21.10;27.00;;;;;;2244507;61;20578;-61
2022/01/20 00:37:16;0.00;0.00;0.62;0.00;0.00;0.62;6.60;3.40;;;21.00;26.90;;;;;;2245470;61;20425;-61
2022/01/20 00:40:02;0.00;0.00;0.62;0.00;0.00;0.62;5.77;2.90;;;20.90;26.80;;;;;;2245387;61;20380;-60
2022/01/20 00:42:48;0.00;0.00;0.62;0.00;0.00;0.62;7.07;2.60;;;20.90;26.70;;;;;;2245989;61;20720;-60
2022/01/20 00:45:32;0.00;0.00;0.62;0.00;0.00;0.62;4.87;3.17;;;20.80;27.10;;;;;;2245083;61;20369;-60
2022/01/20 00:48:18;0.00;0.00;0.62;0.00;0.00;0.62;7.80;2.87;;;20.70;26.40;;;;;;2244915;61;20414;-60
2022/01/20 00:51:03;0.00;0.00;0.62;0.00;0.00;0.62;12.50;3.63;;;20.60;26.20;;;;;;2245729;61;20397;-60
2022/01/20 00:53:49;0.00;0.00;0.62;0.00;0.00;0.62;12.53;3.30;;;20.60;26.30;;;;;;2245732;61;20724;-59
2022/01/20 00:56:33;0.00;0.00;0.62;0.00;0.00;0.62;6.33;2.67;;;20.50;26.30;;;;;;2245626;61;20617;-61
2022/01/20 00:59:19;0.00;0.00;0.62;0.00;0.00;0.62;8.77;3.20;;;20.40;26.30;;;;;;2245651;61;20358;-60
2022/01/20 01:02:08;0.00;0.00;0.62;0.00;0.00;0.62;6.00;2.97;;;20.40;26.30;;;;;;2245415;61;20869;-60
2022/01/20 01:04:53;0.00;0.00;0.62;0.00;0.00;0.62;4.97;2.20;;;20.30;26.30;;;;;;2245956;61;20405;-61
2022/01/20 01:07:46;0.00;0.00;0.62;0.00;0.00;0.62;6.53;2.80;;;20.30;26.30;;;;;;2245059;61;20369;-59
2022/01/20 01:10:34;0.00;0.00;0.62;0.00;0.00;0.62;11.07;3.00;;;20.20;26.20;;;;;;2244755;61;20396;-59
2022/01/20 01:13:20;0.00;0.00;0.62;0.00;0.00;0.62;6.83;3.40;;;20.10;26.10;;;;;;2245300;61;20466;-60
2022/01/20 01:16:09;0.00;0.00;0.62;0.00;0.00;0.62;10.20;3.03;;;20.10;26.20;;;;;;2245596;61;20710;-60
2022/01/20 01:22:21;0.00;0.00;0.62;0.00;0.00;0.62;7.90;3.60;;;20.00;26.20;;;;;;2244794;61;20388;-58
2022/01/20 01:25:06;0.00;0.00;0.62;0.00;0.00;0.62;6.97;3.67;;;19.90;26.20;;;;;;2244373;61;20369;-61
2022/01/20 01:27:51;0.00;0.00;0.62;0.00;0.00;0.62;10.40;3.70;;;19.80;26.20;;;;;;2245597;61;20671;-61
2022/01/20 01:33:51;0.00;0.00;0.62;0.00;0.00;0.62;5.60;3.07;;;19.70;26.10;;;;;;2244866;61;20365;-60
2022/01/20 01:36:57;0.00;0.00;0.62;0.00;0.00;0.62;5.97;2.10;;;19.70;26.10;;;;;;2245207;61;20362;-61
2022/01/20 01:39:41;0.00;0.00;0.62;0.00;0.00;0.62;7.43;2.60;;;19.60;26.20;;;;;;2244702;61;20372;-60
2022/01/20 01:42:35;0.00;0.00;0.62;0.00;0.00;0.62;7.23;2.60;;;19.60;26.30;;;;;;2245481;61;20421;-60
2022/01/20 01:45:27;0.00;0.00;0.62;0.00;0.00;0.62;9.97;3.57;;;19.60;26.30;;;;;;2245170;61;20369;-59
2022/01/20 01:48:12;0.00;0.00;0.62;0.00;0.00;0.62;10.40;3.30;;;19.50;26.30;;;;;;2244958;61;20370;-61
2022/01/20 01:51:01;0.00;0.00;0.62;0.00;0.00;0.62;5.27;2.23;;;19.50;26.30;;;;;;2244762;61;20780;-61
2022/01/20 01:53:47;0.00;0.00;0.62;0.00;0.00;0.62;5.70;1.90;;;19.50;26.30;;;;;;2244959;61;20369;-61
2022/01/20 01:56:34;0.00;0.00;0.62;0.00;0.00;0.62;5.90;2.07;;;19.50;26.30;;;;;;2245174;61;20366;-60
2022/01/20 01:59:18;0.00;0.00;0.62;0.00;0.00;0.62;5.47;2.10;;;19.50;26.50;;;;;;2244577;61;20393;-61
2022/01/20 02:02:11;0.00;0.00;0.62;0.00;0.00;0.62;4.70;2.47;;;19.50;26.60;;;;;;2244288;61;20394;-59
2022/01/20 02:05:02;0.00;0.00;0.62;0.00;0.00;0.62;5.43;2.10;;;19.50;26.60;;;;;;2244997;61;20722;-60
2022/01/20 02:08:24;0.00;0.00;0.62;0.00;0.00;0.62;7.67;2.43;;;19.50;26.70;;;;;;2244904;61;20640;-61
2022/01/20 02:20:20;0.00;0.00;0.62;0.00;0.00;0.62;5.83;2.57;;;19.50;26.50;;;;;;2245347;61;20405;-61
2022/01/20 02:23:11;0.00;0.00;0.62;0.00;0.00;0.62;7.63;2.97;;;19.50;26.50;;;;;;2244573;61;20490;-60
2022/01/20 02:25:58;0.00;0.00;0.62;0.00;0.00;0.62;5.70;2.50;;;19.40;26.40;;;;;;2245073;61;20366;-61
2022/01/20 02:28:46;0.00;0.00;0.62;0.00;0.00;0.62;9.83;2.87;;;19.40;26.40;;;;;;2244903;61;20412;-60
2022/01/20 02:31:32;0.00;0.00;0.62;0.00;0.00;0.62;9.00;3.07;;;19.40;26.40;;;;;;2244139;61;20397;-59
2022/01/20 02:34:20;0.00;0.00;0.62;0.00;0.00;0.62;10.73;2.97;;;19.40;26.40;;;;;;2245448;61;20458;-60
2022/01/20 02:37:10;0.00;0.00;0.62;0.00;0.00;0.62;6.00;2.60;;;19.40;26.40;;;;;;2245463;61;20606;-61
2022/01/20 02:40:25;0.00;0.00;0.62;0.00;0.00;0.62;8.80;3.20;;;19.40;26.30;;;;;;2244421;61;20502;-62
2022/01/20 02:46:09;0.00;0.00;0.62;0.00;0.00;0.62;6.27;2.40;;;19.30;26.10;;;;;;2244596;61;20730;-61
2022/01/20 02:48:53;0.00;0.00;0.62;0.00;0.00;0.62;8.70;3.23;;;19.30;26.10;;;;;;2245314;61;20413;-61
2022/01/20 02:51:45;0.00;0.00;0.62;0.00;0.00;0.62;4.00;2.40;;;19.20;26.20;;;;;;2244685;61;20429;-60
2022/01/20 02:54:31;0.00;0.00;0.62;0.00;0.00;0.62;6.63;2.53;;;19.20;26.20;;;;;;2244738;61;20362;-61
2022/01/20 02:57:15;0.00;0.00;0.62;0.00;0.00;0.62;8.33;2.40;;;19.20;26.20;;;;;;2245066;61;20815;-60
2022/01/20 03:00:00;0.00;0.00;0.62;0.00;0.00;0.62;11.13;2.67;;;19.20;26.00;;;;;;2244641;61;20389;-61
2022/01/20 03:02:46;0.00;0.00;0.62;0.00;0.00;0.62;7.23;3.07;;;19.10;26.00;;;;;;2244899;61;20406;-59
2022/01/20 03:05:31;0.00;0.00;0.62;0.00;0.00;0.62;6.93;2.20;;;19.10;26.00;;;;;;2245129;61;20425;-60
2022/01/20 03:08:20;0.00;0.00;0.62;0.00;0.00;0.62;8.00;3.03;;;19.00;25.90;;;;;;2244186;61;20362;-59
2022/01/20 03:11:05;0.00;0.00;0.62;0.00;0.00;0.62;5.43;2.30;;;19.00;25.90;;;;;;2245547;61;20392;-60
2022/01/20 03:13:50;0.00;0.00;0.62;0.00;0.00;0.62;7.13;2.27;;;19.00;26.10;;;;;;2245137;61;20802;-60
2022/01/20 03:16:35;0.00;0.00;0.62;0.00;0.00;0.62;5.53;2.20;;;18.90;26.00;;;;;;2244116;61;20722;-60
2022/01/20 03:19:20;0.00;0.00;0.62;0.00;0.00;0.62;5.63;2.07;;;18.90;26.00;;;;;;2245328;61;20633;-59
2022/01/20 03:22:04;0.00;0.00;0.62;0.00;0.00;0.62;7.60;2.30;;;18.80;26.00;;;;;;2244806;61;20445;-59
2022/01/20 03:24:50;0.00;0.00;0.62;0.00;0.00;0.62;6.03;2.40;;;18.80;26.20;;;;;;2244531;61;20414;-61
2022/01/20 03:27:38;0.00;0.00;0.62;0.00;0.00;0.62;6.00;2.10;;;18.70;26.20;;;;;;2245299;61;20625;-59
2022/01/20 03:30:23;0.00;0.00;0.62;0.00;0.00;0.62;4.00;1.95;;;18.70;26.20;;;;;;2244985;61;20489;-58
2022/01/20 03:33:07;0.00;0.00;0.62;0.00;0.00;0.62;4.63;1.97;;;18.70;26.30;;;;;;2245895;61;20741;-60
2022/01/20 03:35:53;0.00;0.00;0.62;0.00;0.00;0.62;6.33;1.80;;;18.70;26.30;;;;;;2245435;61;20365;-61
2022/01/20 03:38:56;0.00;0.00;0.62;0.00;0.00;0.62;4.10;1.40;;;18.60;26.30;;;;;;2245262;61;20369;-60
2022/01/20 03:41:41;0.00;0.00;0.62;0.00;0.00;0.62;5.77;1.60;;;18.60;26.30;;;;;;2245576;61;20799;-60
2022/01/20 03:44:37;0.00;0.00;0.62;0.00;0.00;0.62;5.00;1.93;;;18.60;26.40;;;;;;2245218;61;20441;-58
2022/01/20 03:47:24;0.00;0.00;0.62;0.00;0.00;0.62;4.87;1.57;;;18.60;26.40;;;;;;2245622;61;20822;-59
2022/01/20 03:50:59;0.00;0.00;0.62;0.00;0.00;0.62;3.50;1.30;;;18.60;26.40;;;;;;2245272;61;20406;-58
2022/01/20 03:53:15;0.00;0.00;0.62;0.00;0.00;0.62;2.77;1.67;;;18.50;26.30;;;;;;2244710;61;20373;-58
2022/01/20 03:56:01;0.00;0.00;0.62;0.00;0.00;0.62;3.97;1.40;;;18.50;26.30;;;;;;2245542;61;20445;-59
2022/01/20 03:58:52;0.00;0.00;0.62;0.00;0.00;0.62;4.60;1.77;;;18.50;26.40;;;;;;2245333;61;20365;-60
2022/01/20 04:01:38;0.00;0.00;0.62;0.00;0.00;0.62;3.37;1.80;;;18.50;26.40;;;;;;2245055;61;20785;-60
2022/01/20 04:04:38;0.00;0.00;0.62;0.00;0.00;0.62;3.43;1.40;;;18.50;26.50;;;;;;2245285;61;20372;-61
2022/01/20 04:07:30;0.00;0.00;0.62;0.00;0.00;0.62;2.17;1.00;;;18.40;26.40;;;;;;2244739;61;20382;-59
2022/01/20 04:10:14;0.00;0.00;0.62;0.00;0.00;0.62;3.67;1.27;;;18.40;26.40;;;;;;2245777;61;20369;-61
2022/01/20 04:12:59;0.00;0.00;0.62;0.00;0.00;0.62;3.70;1.53;;;18.40;26.40;;;;;;2245670;61;20408;-61
2022/01/20 04:15:43;0.00;0.00;0.62;0.00;0.00;0.62;2.23;1.10;;;18.40;26.30;;;;;;2244878;61;20370;-61
2022/01/20 04:18:30;0.00;0.00;0.62;0.00;0.00;0.62;3.30;1.50;;;18.40;26.40;;;;;;2245476;61;20611;-60
2022/01/20 04:21:15;0.00;0.00;0.62;0.00;0.00;0.62;2.93;1.00;;;18.40;26.50;;;;;;2245099;61;20860;-60
2022/01/20 04:24:02;0.00;0.00;0.62;0.00;0.00;0.62;2.00;1.07;;;18.40;26.60;;;;;;2245175;61;20401;-60
2022/01/20 04:26:49;0.00;0.00;0.62;0.00;0.00;0.62;1.90;0.97;;;18.40;26.70;;;;;;2245355;61;20365;-61
2022/01/20 04:29:34;0.00;0.00;0.62;0.00;0.00;0.62;3.13;1.20;;;18.40;26.70;;;;;;2244862;61;20712;-59
2022/01/20 04:32:19;0.00;0.00;0.62;0.00;0.00;0.62;3.00;1.10;;;18.40;27.30;;;;;;2246168;61;20465;-57
2022/01/20 04:35:06;0.00;0.00;0.62;0.00;0.00;0.62;4.40;0.90;;;18.40;26.80;;;;;;2245187;61;20369;-61
2022/01/20 04:37:53;0.00;0.00;0.62;0.00;0.00;0.62;2.03;1.20;;;18.40;26.80;;;;;;2244329;61;20373;-58
2022/01/20 04:40:41;0.00;0.00;0.62;0.00;0.00;0.62;2.90;1.10;;;18.40;26.70;;;;;;2245757;61;20369;-59
2022/01/20 04:43:26;0.00;0.00;0.62;0.00;0.00;0.62;1.90;0.93;;;18.40;26.60;;;;;;2245439;61;20434;-60
2022/01/20 04:47:18;0.00;0.00;0.62;0.00;0.00;0.62;2.93;1.10;;;18.40;26.60;;;;;;2245445;61;20353;-59
2022/01/20 04:58:37;0.00;0.00;0.62;0.00;0.00;0.62;3.83;1.10;;;18.40;26.50;;;;;;2244778;61;20652;-61
2022/01/20 05:01:22;0.00;0.00;0.62;0.00;0.00;0.62;4.60;1.13;;;18.40;26.50;;;;;;2245283;61;20453;-61
2022/01/20 05:04:24;0.00;0.00;0.62;0.00;0.00;0.62;2.50;1.17;;;18.40;26.60;;;;;;2244933;61;20725;-59
2022/01/20 05:07:32;0.00;0.00;0.62;0.00;0.00;0.62;2.90;1.20;;;18.40;26.70;;;;;;2244982;61;20478;-60
2022/01/20 05:10:17;0.00;0.00;0.62;0.00;0.00;0.62;2.60;1.10;;;18.40;26.70;;;;;;2245284;61;20448;-59
2022/01/20 05:13:23;0.00;0.00;0.62;0.00;0.00;0.62;1.73;0.90;;;18.40;26.70;;;;;;2244992;61;20369;-60
2022/01/20 05:16:08;0.00;0.00;0.62;0.00;0.00;0.62;2.23;1.20;;;18.40;26.70;;;;;;2245387;61;20373;-60
2022/01/20 05:18:52;0.00;0.00;0.62;0.00;0.00;0.62;2.40;1.47;;;18.40;26.70;;;;;;2244816;61;20630;-60
2022/01/20 05:21:38;0.00;0.00;0.62;0.00;0.00;0.62;3.27;1.47;;;18.40;26.70;;;;;;2244379;61;20646;-60
2022/01/20 05:24:30;0.00;0.00;0.62;0.00;0.00;0.62;4.00;1.30;;;18.40;26.80;;;;;;2245406;61;20401;-61
2022/01/20 05:27:15;0.00;0.00;0.62;0.00;0.00;0.62;2.60;1.00;;;18.40;26.80;;;;;;2245380;61;20385;-61
2022/01/20 05:30:00;0.00;0.00;0.62;0.00;0.00;0.62;2.17;0.90;;;18.40;26.80;;;;;;2244426;61;20366;-60
2022/01/20 05:32:45;0.00;0.00;0.62;0.00;0.00;0.62;3.40;1.20;;;18.40;26.80;;;;;;2245254;61;20429;-60
2022/01/20 05:35:30;0.00;0.00;0.62;0.00;0.00;0.62;3.80;1.37;;;18.50;26.90;;;;;;2245000;61;20394;-59
2022/01/20 05:38:15;0.00;0.00;0.62;0.00;0.00;0.62;3.60;1.50;;;18.40;26.70;;;;;;2244943;61;20454;-60
2022/01/20 05:41:04;0.00;0.00;0.62;0.00;0.00;0.62;4.87;1.77;;;18.50;26.60;;;;;;2244932;61;20432;-61
2022/01/20 05:43:48;0.00;0.00;0.62;0.00;0.00;0.62;2.97;1.20;;;18.40;26.50;;;;;;2244374;61;20373;-61
2022/01/20 05:46:42;0.00;0.00;0.62;0.00;0.00;0.62;3.90;1.30;;;18.40;26.50;;;;;;2245794;61;20591;-61
2022/01/20 05:49:38;0.00;0.00;0.62;0.00;0.00;0.62;2.70;1.10;;;18.50;26.70;;;;;;2245002;61;20350;-60
2022/01/20 05:52:25;0.00;0.00;0.62;0.00;0.00;0.62;4.67;1.40;;;18.50;26.60;;;;;;2244735;61;20462;-61
2022/01/20 05:55:12;0.00;0.00;0.62;0.00;0.00;0.62;3.07;1.33;;;18.50;26.60;;;;;;2245703;61;20449;-58
2022/01/20 05:57:58;0.00;0.00;0.62;0.00;0.00;0.62;4.97;1.63;;;18.50;26.60;;;;;;2244822;61;20408;-59
2022/01/20 06:00:43;0.00;0.00;0.62;0.00;0.00;0.62;6.40;1.93;;;18.50;26.30;;;;;;2245045;61;20397;-61
2022/01/20 06:03:36;0.00;0.00;0.62;0.00;0.00;0.62;4.00;1.50;;;18.40;26.20;;;;;;2244990;61;20409;-60
2022/01/20 06:06:21;0.00;0.00;0.62;0.00;0.00;0.62;5.30;1.80;;;18.40;26.20;;;;;;2244383;61;20409;-60
2022/01/20 06:09:08;0.00;0.00;0.62;0.00;0.00;0.62;2.90;1.60;;;18.40;26.20;;;;;;2245396;61;20474;-60
2022/01/20 06:11:52;0.00;0.00;0.62;0.00;0.00;0.62;3.07;1.43;;;18.40;26.40;;;;;;2245191;61;20401;-60
2022/01/20 06:14:38;0.00;0.00;0.62;0.00;0.00;0.62;3.20;1.10;;;18.40;26.50;;;;;;2244703;61;20372;-60
2022/01/20 06:17:27;0.00;0.00;0.62;0.00;0.00;0.62;2.17;1.20;;;18.40;26.60;;;;;;2244929;61;20368;-58
2022/01/20 06:20:16;0.00;0.00;0.62;0.00;0.00;0.62;3.80;1.20;;;18.40;26.60;;;;;;2244759;61;20600;-60
2022/01/20 06:23:04;0.00;0.00;0.62;0.00;0.00;0.62;2.17;0.83;;;18.50;26.70;;;;;;2245230;61;20390;-60
2022/01/20 06:25:49;0.00;0.00;0.62;0.00;0.00;0.62;4.23;1.47;;;18.50;26.80;;;;;;2244804;61;20702;-61
2022/01/20 06:28:37;0.00;0.00;0.62;0.00;0.00;0.62;2.20;0.90;;;18.60;26.80;;;;;;2244297;61;20579;-59
2022/01/20 06:31:25;0.00;0.00;0.62;0.00;0.00;0.62;1.50;0.80;;;18.60;26.80;;;;;;2245016;61;20458;-60
2022/01/20 06:34:10;0.00;0.00;0.62;0.00;0.00;0.62;2.97;1.50;;;18.60;26.80;;;;;;2245190;61;20357;-60
2022/01/20 06:36:55;0.00;0.00;0.62;0.00;0.00;0.62;4.70;1.40;;;18.70;26.90;;;;;;2244603;61;20365;-60
2022/01/20 06:39:39;0.00;0.00;0.62;0.00;0.00;0.62;2.67;1.13;;;18.70;26.90;;;;;;2244882;61;20408;-60
2022/01/20 06:42:24;0.00;0.00;0.62;0.00;0.00;0.62;2.27;1.20;;;18.70;26.90;;;;;;2244628;61;20406;-59
2022/01/20 06:45:13;0.00;0.00;0.62;0.00;0.00;0.62;2.93;1.03;;;18.70;26.90;;;;;;2244977;61;20441;-61
2022/01/20 06:48:00;0.00;0.00;0.62;0.00;0.00;0.62;2.27;1.10;;;18.80;26.90;;;;;;2244858;61;20365;-60
2022/01/20 06:50:45;0.00;0.00;0.62;0.00;0.00;0.62;1.70;0.90;;;18.80;26.90;;;;;;2244048;61;20369;-60
2022/01/20 06:53:29;0.00;0.00;0.62;0.00;0.00;0.62;2.63;1.03;;;18.80;26.90;;;;;;2245333;61;20422;-61
2022/01/20 06:56:13;0.00;0.00;0.62;0.00;0.00;0.62;3.10;1.13;;;18.90;26.90;;;;;;2245118;61;20373;-60
2022/01/20 06:58:58;0.00;0.00;0.62;0.00;0.00;0.62;2.10;0.90;;;18.90;26.90;;;;;;2244899;61;20794;-59
2022/01/20 07:01:45;0.00;0.00;0.62;0.00;0.00;0.62;2.90;1.23;;;18.90;26.90;;;;;;2244842;61;20453;-61
2022/01/20 07:04:38;0.00;0.00;0.62;0.00;0.00;0.62;2.87;1.10;;;18.90;26.90;;;;;;2244479;61;20386;-58
2022/01/20 07:07:23;0.00;0.00;0.62;0.00;0.00;0.62;2.40;1.10;;;19.00;27.00;;;;;;2245273;61;20369;-59
2022/01/20 07:10:30;0.00;0.00;0.62;0.00;0.00;0.62;2.00;1.10;;;19.00;26.90;;;;;;2244630;61;20365;-59
2022/01/20 07:13:15;0.00;0.00;0.62;0.00;0.00;0.62;2.07;1.00;;;19.00;26.90;;;;;;2244676;61;20731;-60
2022/01/20 07:16:00;0.00;0.00;0.62;0.00;0.00;0.62;2.30;1.10;;;19.10;27.00;;;;;;2245322;61;20421;-61
2022/01/20 07:18:44;0.00;0.00;0.62;0.00;0.00;0.62;1.80;0.90;;;19.10;27.00;;;;;;2244716;61;20366;-59
2022/01/20 07:21:30;0.00;0.00;0.62;0.00;0.00;0.62;2.00;0.97;;;19.10;27.00;;;;;;2244552;61;20487;-60
2022/01/20 07:24:19;0.00;0.00;0.62;0.00;0.00;0.62;2.60;0.90;;;19.10;27.00;;;;;;2244551;61;20478;-59
2022/01/20 07:27:04;0.00;0.00;0.62;0.00;0.00;0.62;1.57;0.73;;;19.20;27.00;;;;;;2244677;61;20369;-61
2022/01/20 07:29:50;0.00;0.00;0.62;0.00;0.00;0.62;3.10;1.10;;;19.20;27.00;;;;;;2245358;61;20586;-61
2022/01/20 07:32:35;0.00;0.00;0.62;0.00;0.00;0.62;2.43;0.90;;;19.20;27.00;;;;;;2244650;61;20385;-61
2022/01/20 07:35:20;0.00;0.00;0.62;0.00;0.00;0.62;1.60;0.90;;;19.20;27.00;;;;;;2244238;61;20370;-60
2022/01/20 07:38:07;0.00;0.00;0.62;0.00;0.00;0.62;1.73;0.80;;;19.20;27.00;;;;;;2245245;61;21323;-61
2022/01/20 07:40:53;0.00;0.00;0.62;0.00;0.00;0.62;2.40;0.80;;;19.20;27.00;;;;;;2244565;61;20393;-60
2022/01/20 07:43:38;0.00;0.00;0.62;0.00;0.00;0.62;3.13;0.90;;;19.30;27.00;;;;;;2244800;61;20370;-59
2022/01/20 07:46:54;0.00;0.00;0.62;0.00;0.00;0.62;1.63;0.73;;;19.30;27.00;;;;;;2244477;61;20753;-61
2022/01/20 07:49:39;0.00;0.00;0.62;0.00;0.00;0.62;1.40;0.80;;;19.30;27.00;;;;;;2244026;61;20769;-60
2022/01/20 07:52:23;0.00;0.00;0.62;0.00;0.00;0.62;2.50;0.97;;;19.30;27.00;;;;;;2245333;61;20412;-62
2022/01/20 07:55:10;0.00;0.00;0.62;0.00;0.00;0.62;1.80;0.90;;;19.30;27.00;;;;;;2244949;61;20482;-61
2022/01/20 07:57:55;0.00;0.00;0.62;0.00;0.00;0.62;1.97;0.83;;;19.30;27.00;;;;;;2243971;61;20365;-60
2022/01/20 08:00:44;0.00;0.00;0.62;0.00;0.00;0.62;2.00;1.00;;;19.40;27.00;;;;;;2244727;61;20597;-59
2022/01/20 08:03:29;0.00;0.00;0.62;0.00;0.00;0.62;1.63;0.80;;;19.40;27.00;;;;;;2244529;61;20405;-61
2022/01/20 08:06:22;0.00;0.00;0.62;0.00;0.00;0.62;1.90;0.93;;;19.40;27.00;;;;;;2244989;61;20366;-58
2022/01/20 08:09:11;0.00;0.00;0.62;0.00;0.00;0.62;1.93;0.80;;;19.40;27.00;;;;;;2244572;61;20405;-61
2022/01/20 08:12:19;0.00;0.00;0.62;0.00;0.00;0.62;1.70;0.80;;;19.40;27.00;;;;;;2243843;61;20703;-60
2022/01/20 08:15:31;0.00;0.00;0.62;0.00;0.00;0.62;2.10;1.00;;;19.50;27.00;;;;;;2245972;61;20369;-60
2022/01/20 08:18:22;0.00;0.00;0.62;0.00;0.00;0.62;2.60;1.00;;;19.50;27.00;;;;;;2245228;61;20369;-60
2022/01/20 08:21:06;0.00;0.00;0.62;0.00;0.00;0.62;1.97;0.70;;;19.50;27.00;;;;;;2245358;61;20573;-58
2022/01/20 08:23:51;0.00;0.00;0.62;0.00;0.00;0.62;2.73;1.10;;;19.50;27.00;;;;;;2245152;61;20381;-60
2022/01/20 08:26:36;0.00;0.00;0.62;0.00;0.00;0.62;1.30;0.73;;;19.50;27.00;;;;;;2244689;61;20397;-60
2022/01/20 08:29:22;0.00;0.00;0.62;0.00;0.00;0.62;1.60;1.10;;;19.50;27.00;;;;;;2246297;61;20429;-60
2022/01/20 08:32:07;0.00;0.00;0.62;0.00;0.00;0.62;3.13;1.00;;;19.60;27.10;;;;;;2245330;61;20490;-61
2022/01/20 08:34:59;0.00;0.00;0.62;0.00;0.00;0.62;2.20;0.80;;;19.60;27.60;;;;;;2244798;61;20626;-61
2022/01/20 08:37:53;0.00;0.00;0.62;0.00;0.00;0.62;1.90;0.90;;;19.60;27.00;;;;;;2245287;61;20357;-61
2022/01/20 08:40:39;0.00;0.00;0.62;0.00;0.00;0.62;1.77;0.97;;;19.60;27.00;;;;;;2244982;61;20485;-60
2022/01/20 08:43:24;0.00;0.00;0.62;0.00;0.00;0.62;1.40;0.80;;;19.60;27.00;;;;;;2245207;61;20366;-61
2022/01/20 08:46:11;0.00;0.00;0.62;0.00;0.00;0.62;1.40;0.80;;;19.60;27.00;;;;;;2245141;61;20370;-61
2022/01/20 08:48:57;0.00;0.00;0.62;0.00;0.00;0.62;1.70;0.90;;;19.60;27.00;;;;;;2244647;61;20494;-61
2022/01/20 08:52:01;0.00;0.00;0.62;0.00;0.00;0.62;2.10;0.90;;;19.60;27.00;;;;;;2245271;61;20809;-60
2022/01/20 08:54:50;0.00;0.00;0.62;0.00;0.00;0.62;1.57;0.87;;;19.70;27.00;;;;;;2245526;61;20394;-61
2022/01/20 08:57:51;0.00;0.00;0.62;0.00;0.00;0.62;2.00;1.17;;;19.70;27.00;;;;;;2245224;61;20704;-61
2022/01/20 09:00:36;0.00;0.00;0.62;0.00;0.00;0.62;1.60;0.80;;;19.70;27.00;;;;;;2245404;61;20413;-59
2022/01/20 09:03:24;0.00;0.00;0.62;0.00;0.00;0.62;2.07;1.00;;;19.70;27.00;;;;;;2244795;61;20389;-59
2022/01/20 09:06:09;0.00;0.00;0.62;0.00;0.00;0.62;2.13;0.90;;;19.70;27.00;;;;;;2245702;61;20357;-60
2022/01/20 09:09:07;0.00;0.00;0.62;0.00;0.00;0.62;1.87;1.00;;;19.70;27.00;;;;;;2245147;61;20366;-61
2022/01/20 09:12:15;0.00;0.00;0.62;0.00;0.00;0.62;1.77;1.00;;;19.70;26.90;;;;;;2244565;61;20392;-61
2022/01/20 09:18:05;0.00;0.00;0.62;0.00;0.00;0.62;1.47;0.80;;;19.80;27.00;;;;;;2245013;61;20425;-61
2022/01/20 09:20:51;0.00;0.00;0.62;0.00;0.00;0.62;1.60;0.77;;;19.80;27.00;;;;;;2245942;61;20401;-59
2022/01/20 09:23:36;0.00;0.00;0.62;0.00;0.00;0.62;1.60;0.90;;;19.80;27.00;;;;;;2244850;61;20703;-60
2022/01/20 09:26:21;0.00;0.00;0.62;0.00;0.00;0.62;1.33;0.70;;;19.80;27.00;;;;;;2244589;61;20596;-59
2022/01/20 09:29:06;0.00;0.00;0.62;0.00;0.00;0.62;1.50;0.70;;;19.80;27.00;;;;;;2245253;61;20354;-61
2022/01/20 09:31:53;0.00;0.00;0.62;0.00;0.00;0.62;1.67;0.90;;;19.80;27.00;;;;;;2245181;61;20393;-60
2022/01/20 09:34:42;0.00;0.00;0.62;0.00;0.00;0.62;2.13;1.00;;;19.90;27.10;;;;;;2244876;61;20366;-61
2022/01/20 09:37:28;0.00;0.00;0.62;0.00;0.00;0.62;1.40;0.80;;;19.90;27.00;;;;;;2245119;61;20409;-60
2022/01/20 09:40:13;0.00;0.00;0.62;0.00;0.00;0.62;1.63;0.80;;;19.90;27.00;;;;;;2244887;61;20394;-60
2022/01/20 09:43:03;0.00;0.00;0.62;0.00;0.00;0.62;1.40;0.70;;;19.90;27.00;;;;;;2245518;61;20398;-60
2022/01/20 09:45:53;0.00;0.00;0.62;0.00;0.00;0.62;1.50;0.70;;;19.90;27.00;;;;;;2245073;61;20619;-59
2022/01/20 09:48:37;0.00;0.00;0.62;0.00;0.00;0.62;1.40;0.67;;;19.90;27.00;;;;;;2244497;61;20385;-60
2022/01/20 09:51:42;0.00;0.00;0.62;0.00;0.00;0.62;2.33;0.90;;;19.90;26.90;;;;;;2245077;61;20720;-60
2022/01/20 09:54:38;0.00;0.00;0.62;0.00;0.00;0.62;1.40;0.73;;;19.90;27.00;;;;;;2244904;61;20377;-60
2022/01/20 09:57:28;0.00;0.00;0.62;0.00;0.00;0.62;1.40;0.70;;;19.90;26.90;;;;;;2245187;61;20370;-59
2022/01/20 10:00:17;0.00;0.00;0.62;0.00;0.00;0.62;1.53;0.80;;;19.90;26.90;;;;;;2244848;61;20396;-61
2022/01/20 10:03:09;0.00;0.00;0.62;0.00;0.00;0.62;1.60;0.80;;;20.00;27.00;;;;;;2244348;61;20365;-60
2022/01/20 10:05:54;0.00;0.00;0.62;0.00;0.00;0.62;1.57;1.00;;;20.00;27.00;;;;;;2245369;61;20489;-61
2022/01/20 10:08:39;0.00;0.00;0.62;0.00;0.00;0.62;1.90;0.87;;;20.00;27.00;;;;;;2245310;61;20374;-59
2022/01/20 10:11:33;0.00;0.00;0.62;0.00;0.00;0.62;1.73;0.80;;;20.00;26.90;;;;;;2244506;61;20390;-61
2022/01/20 10:14:38;0.00;0.00;0.62;0.00;0.00;0.62;1.73;0.77;;;20.00;26.90;;;;;;2244924;61;20389;-59
2022/01/20 10:17:42;0.00;0.00;0.62;0.00;0.00;0.62;2.03;0.80;;;20.00;26.90;;;;;;2244607;61;20756;-60
2022/01/20 10:20:28;0.00;0.00;0.62;0.00;0.00;0.62;1.57;0.80;;;20.00;26.90;;;;;;2245539;61;20762;-59
2022/01/20 10:23:28;0.00;0.00;0.62;0.00;0.00;0.62;1.97;1.00;;;20.00;26.90;;;;;;2245148;61;20775;-60
2022/01/20 10:26:29;0.00;0.00;0.62;0.00;0.00;0.62;1.93;0.70;;;20.00;26.90;;;;;;2244663;61;20354;-60
2022/01/20 10:29:19;0.00;0.00;0.62;0.00;0.00;0.62;1.40;0.70;;;20.00;26.90;;;;;;2244956;61;20381;-59
2022/01/20 10:32:05;0.00;0.00;0.62;0.00;0.00;0.62;2.30;0.90;;;20.00;26.90;;;;;;2244637;61;20400;-60
2022/01/20 10:35:02;0.00;0.00;0.62;0.00;0.00;0.62;1.77;0.77;;;20.00;26.90;;;;;;2245563;61;20413;-58
2022/01/20 10:37:58;0.00;0.00;0.62;0.00;0.00;0.62;1.20;0.70;;;20.00;26.80;;;;;;2244711;61;20675;-59
2022/01/20 10:40:47;0.00;0.00;0.62;0.00;0.00;0.62;2.10;1.00;;;20.10;26.90;;;;;;2244206;61;20369;-61
2022/01/20 10:43:34;0.00;0.00;0.62;0.00;0.00;0.62;1.63;0.83;;;20.10;26.90;;;;;;2245019;61;20393;-60
2022/01/20 10:46:51;0.00;0.00;0.62;0.00;0.00;0.62;2.03;1.00;;;20.10;26.90;;;;;;2244555;61;20409;-61
2022/01/20 10:49:42;0.00;0.00;0.62;0.00;0.00;0.62;1.83;0.80;;;20.10;26.90;;;;;;2245359;61;20385;-59
2022/01/20 10:52:36;0.00;0.00;0.62;0.00;0.00;0.62;1.80;0.90;;;20.10;26.90;;;;;;2244797;61;20393;-61
2022/01/20 10:55:24;0.00;0.00;0.62;0.00;0.00;0.62;1.70;0.80;;;20.10;26.90;;;;;;2244332;61;20392;-60
2022/01/20 10:58:15;0.00;0.00;0.62;0.00;0.00;0.62;1.97;0.80;;;20.10;26.90;;;;;;2245030;61;20804;-61
2022/01/20 11:01:00;0.00;0.00;0.62;0.00;0.00;0.62;1.30;0.70;;;20.10;26.80;;;;;;2244496;61;20385;-61
2022/01/20 11:03:49;0.00;0.00;0.62;0.00;0.00;0.62;1.97;0.90;;;20.10;26.80;;;;;;2244879;61;20785;-60
2022/01/20 11:06:40;0.00;0.00;0.62;0.00;0.00;0.62;2.10;1.00;;;20.10;26.80;;;;;;2244680;61;20369;-62
2022/01/20 11:09:46;0.00;0.00;0.62;0.00;0.00;0.62;1.70;0.93;;;20.10;26.80;;;;;;2244028;61;20366;-61
2022/01/20 11:13:03;0.00;0.00;0.62;0.00;0.00;0.62;1.87;0.97;;;20.10;26.70;;;;;;2240475;61;20465;-60
2022/01/20 11:15:52;0.00;0.00;0.62;0.00;0.00;0.62;2.00;0.83;;;20.10;26.70;;;;;;2244844;61;20362;-60
2022/01/20 11:18:39;0.00;0.00;0.62;0.00;0.00;0.62;1.73;0.83;;;20.10;26.70;;;;;;2244990;61;20369;-61
2022/01/20 11:21:26;0.00;0.00;0.62;0.00;0.00;0.62;1.40;0.80;;;20.10;26.70;;;;;;2244587;61;20780;-60
2022/01/20 11:24:23;0.00;0.00;0.62;0.00;0.00;0.62;1.87;1.10;;;20.10;26.70;;;;;;2244079;61;20729;-59
2022/01/20 11:27:44;0.00;0.00;0.62;0.00;0.00;0.62;1.50;0.90;;;20.10;26.70;;;;;;2244942;61;20373;-60
2022/01/20 11:30:55;0.00;0.00;0.62;0.00;0.00;0.62;1.43;0.70;;;20.10;26.70;;;;;;2245131;61;20458;-60
2022/01/20 11:33:49;0.00;0.00;0.62;0.00;0.00;0.62;3.00;0.80;;;20.10;26.70;;;;;;2245228;61;20447;-60
2022/01/20 11:36:35;0.00;0.00;0.62;0.00;0.00;0.62;1.90;0.90;;;20.10;26.70;;;;;;2244925;61;20442;-61
2022/01/20 11:39:25;0.00;0.00;0.62;0.00;0.00;0.62;1.67;0.80;;;20.10;26.70;;;;;;2244160;61;20496;-59
2022/01/20 11:42:20;0.00;0.00;0.62;0.00;0.00;0.62;2.73;0.93;;;20.20;26.80;;;;;;2245315;61;20613;-59
2022/01/20 11:45:25;0.00;0.00;0.62;0.00;0.00;0.62;1.60;0.77;;;20.20;26.80;;;;;;2244777;61;20361;-60
2022/01/20 11:48:14;0.00;0.00;0.62;0.00;0.00;0.62;2.97;0.90;;;20.20;26.80;;;;;;2245487;61;20373;-61
2022/01/20 11:51:05;0.00;0.00;0.62;0.00;0.00;0.62;2.73;0.97;;;20.20;26.90;;;;;;2245673;61;20617;-60
2022/01/20 11:54:00;0.00;0.00;0.62;0.00;0.00;0.62;1.50;0.80;;;20.20;26.90;;;;;;2245347;61;20597;-61
2022/01/20 11:56:45;0.00;0.00;0.62;0.00;0.00;0.62;1.60;0.80;;;20.20;26.90;;;;;;2246296;61;20368;-60
2022/01/20 11:59:36;0.00;0.00;0.62;0.00;0.00;0.62;1.37;0.80;;;20.20;26.80;;;;;;2245800;61;20471;-61
2022/01/20 12:02:29;0.00;0.00;0.62;0.00;0.00;0.62;2.23;0.90;;;20.30;26.90;;;;;;2245087;61;20463;-57
2022/01/20 12:05:21;0.00;0.00;0.62;0.00;0.00;0.62;1.30;0.73;;;20.20;26.80;;;;;;2245456;61;20385;-61